createdAt,value
2022-11-06T00:00:09.190Z,92481.78
2022-11-06T00:01:40.989Z,92483.84
2022-11-06T00:03:12.587Z,92486.53
2022-11-06T00:04:44.322Z,92488.78
2022-11-06T00:06:36.310Z,92496.53
2022-11-06T00:08:07.841Z,92493.03
2022-11-06T00:09:39.434Z,92496.53
2022-11-06T00:11:11.847Z,92502.13
2022-11-06T00:12:43.492Z,92497.28
2022-11-06T00:14:15.189Z,92492.09
2022-11-06T00:15:46.960Z,92495.66
2022-11-06T00:17:18.488Z,92498.78
2022-11-06T00:18:50.044Z,92496.59
2022-11-06T00:20:21.694Z,92498.72
2022-11-06T00:21:53.589Z,92503.19
2022-11-06T00:23:25.207Z,92493.97
2022-11-06T00:24:56.872Z,92492.88
2022-11-06T00:26:28.929Z,92489.06
2022-11-06T00:28:00.534Z,92486.03
2022-11-06T00:29:32.327Z,92492.53
2022-11-06T00:31:08.730Z,92493.97
2022-11-06T00:32:40.729Z,92496.22
2022-11-06T00:34:12.394Z,92493.41
2022-11-06T00:35:44.256Z,92496.44
2022-11-06T00:37:15.936Z,92497.53
2022-11-06T00:38:47.527Z,92496.63
2022-11-06T00:40:19.489Z,92496.50
2022-11-06T00:41:51.055Z,92490.97
2022-11-06T00:43:23.304Z,92492.56
2022-11-06T00:44:54.871Z,92490.38
2022-11-06T00:46:26.643Z,92485.84
2022-11-06T00:47:58.275Z,92488.75
2022-11-06T00:49:30.669Z,92486.47
2022-11-06T00:51:05.501Z,92486.47
2022-11-06T00:52:37.165Z,92487.75
2022-11-06T00:54:10.283Z,92475.69
2022-11-06T00:55:41.903Z,92478.06
2022-11-06T00:57:13.664Z,92479.19
2022-11-06T00:58:45.424Z,92477.03
2022-11-06T01:00:18.411Z,92479.41
2022-11-06T01:01:50.061Z,92489.47
2022-11-06T01:03:21.772Z,92481.78
2022-11-06T01:04:53.454Z,92481.69
2022-11-06T01:06:25.909Z,92478.03
2022-11-06T01:07:57.528Z,92478.44
2022-11-06T01:09:29.303Z,92481.94
2022-11-06T01:11:06.083Z,92478.44
2022-11-06T01:12:37.650Z,92478.34
2022-11-06T01:14:09.453Z,92465.19
2022-11-06T01:15:41.046Z,92476.63
2022-11-06T01:17:13.516Z,92466.50
2022-11-06T01:18:45.445Z,92472.56
2022-11-06T01:20:17.107Z,92480.31
2022-11-06T01:21:49.429Z,92477.16
2022-11-06T01:23:21.037Z,92462.91
2022-11-06T01:24:52.838Z,92472.56
2022-11-06T01:26:37.378Z,92476.22
2022-11-06T01:28:10.290Z,92477.69
2022-11-06T01:29:42.141Z,92478.59
2022-11-06T01:31:14.495Z,92475.25
2022-11-06T01:32:46.204Z,92485.72
2022-11-06T01:34:18.026Z,92474.56
2022-11-06T01:35:51.438Z,92478.38
2022-11-06T01:37:23.073Z,92467.16
2022-11-06T01:38:55.640Z,92467.59
2022-11-06T01:40:27.537Z,92474.72
2022-11-06T01:41:59.198Z,92468.66
2022-11-06T01:43:49.012Z,92472.81
2022-11-06T01:45:23.758Z,92464.47
2022-11-06T01:46:55.316Z,92460.06
2022-11-06T01:48:26.835Z,92464.75
2022-11-06T01:50:01.226Z,92470.00
2022-11-06T01:51:34.515Z,92467.19
2022-11-06T01:53:06.153Z,92471.91
2022-11-06T01:54:38.762Z,92474.34
2022-11-06T01:56:11.089Z,92474.66
2022-11-06T01:57:42.914Z,92469.91
2022-11-06T01:59:15.780Z,92469.59
2022-11-06T02:00:47.510Z,92465.63
2022-11-06T02:02:19.320Z,92474.66
2022-11-06T02:03:57.108Z,92474.50
2022-11-06T02:05:28.624Z,92472.16
2022-11-06T02:07:00.246Z,92470.91
2022-11-06T02:08:31.824Z,92466.09
2022-11-06T02:10:03.489Z,92470.38
2022-11-06T02:11:35.122Z,92471.31
2022-11-06T02:13:09.646Z,92470.44
2022-11-06T02:15:01.863Z,92472.97
2022-11-06T02:16:47.031Z,92469.53
2022-11-06T02:18:25.277Z,92477.03
2022-11-06T02:20:06.421Z,92473.22
2022-11-06T02:21:56.727Z,92476.25
2022-11-06T02:23:42.244Z,92481.38
2022-11-06T02:25:13.986Z,92473.28
2022-11-06T02:26:51.513Z,92479.66
2022-11-06T02:28:23.027Z,92474.41
2022-11-06T02:30:02.825Z,92477.09
2022-11-06T02:31:34.620Z,92479.78
2022-11-06T02:33:07.561Z,92480.13
2022-11-06T02:34:39.203Z,92480.13
2022-11-06T02:36:12.437Z,92475.63
2022-11-06T02:37:44.426Z,92481.63
2022-11-06T02:39:16.527Z,92481.63
2022-11-06T02:40:54.747Z,92484.13
2022-11-06T02:42:26.589Z,92482.69
2022-11-06T02:43:58.199Z,92483.78
2022-11-06T02:45:29.853Z,92485.59
2022-11-06T02:47:02.256Z,92490.97
2022-11-06T02:48:37.268Z,92476.25
2022-11-06T02:50:18.568Z,92479.13
2022-11-06T02:51:50.877Z,92480.69
2022-11-06T02:53:23.570Z,92479.78
2022-11-06T02:55:05.884Z,92480.44
2022-11-06T02:56:39.464Z,92486.16
2022-11-06T02:58:19.135Z,92494.09
2022-11-06T02:59:52.477Z,92487.25
2022-11-06T03:01:28.450Z,92484.72
2022-11-06T03:03:26.643Z,92485.97
2022-11-06T03:05:04.771Z,92490.03
2022-11-06T03:06:38.470Z,92479.25
2022-11-06T03:08:12.775Z,92487.16
2022-11-06T03:09:44.531Z,92496.94
2022-11-06T03:11:17.567Z,92487.28
2022-11-06T03:12:50.908Z,92489.19
2022-11-06T03:14:45.700Z,92485.84
2022-11-06T03:16:17.340Z,92493.75
2022-11-06T03:17:49.016Z,92491.38
2022-11-06T03:19:38.203Z,92497.09
2022-11-06T03:21:15.960Z,92497.94
2022-11-06T03:22:47.992Z,92492.72
2022-11-06T03:24:23.219Z,92489.47
2022-11-06T03:25:58.238Z,92497.72
2022-11-06T03:27:36.195Z,92500.28
2022-11-06T03:29:16.508Z,92507.56
2022-11-06T03:30:52.528Z,92499.94
2022-11-06T03:32:28.351Z,92494.09
2022-11-06T03:34:01.695Z,92493.97
2022-11-06T03:35:36.000Z,92497.47
2022-11-06T03:37:09.947Z,92504.75
2022-11-06T03:38:42.623Z,92508.56
2022-11-06T03:40:16.222Z,92507.25
2022-11-06T03:41:48.383Z,92499.31
2022-11-06T03:43:20.953Z,92507.84
2022-11-06T03:44:53.646Z,92495.44
2022-11-06T03:46:25.368Z,92497.81
2022-11-06T03:47:59.608Z,92496.38
2022-11-06T03:49:36.289Z,92494.47
2022-11-06T03:51:13.383Z,92491.44
2022-11-06T03:52:47.216Z,92489.38
2022-11-06T03:54:20.552Z,92492.41
2022-11-06T03:55:52.797Z,92496.53
2022-11-06T03:57:29.117Z,92491.16
2022-11-06T03:59:02.117Z,92486.41
2022-11-06T04:00:35.006Z,92490.38
2022-11-06T04:02:06.556Z,92497.34
2022-11-06T04:03:39.899Z,92497.81
2022-11-06T04:05:21.924Z,92495.91
2022-11-06T04:06:53.601Z,92499.53
2022-11-06T04:08:44.209Z,92503.44
2022-11-06T04:10:34.266Z,92502.34
2022-11-06T04:12:24.706Z,92507.16
2022-11-06T04:14:00.992Z,92502.41
2022-11-06T04:15:33.568Z,92506.06
2022-11-06T04:17:06.512Z,92501.34
2022-11-06T04:18:38.521Z,92495.16
2022-11-06T04:20:10.910Z,92509.75
2022-11-06T04:21:52.541Z,92506.75
2022-11-06T04:23:32.747Z,92500.25
2022-11-06T04:25:22.996Z,92508.75
2022-11-06T04:26:57.533Z,92499.25
2022-11-06T04:28:37.016Z,92505.88
2022-11-06T04:30:09.551Z,92500.03
2022-11-06T04:31:43.396Z,92505.41
2022-11-06T04:33:18.403Z,92504.31
2022-11-06T04:34:56.319Z,92500.19
2022-11-06T04:36:50.859Z,92504.56
2022-11-06T04:38:27.978Z,92496.75
2022-11-06T04:40:05.358Z,92503.75
2022-11-06T04:41:55.872Z,92505.75
2022-11-06T04:43:32.972Z,92504.44
2022-11-06T04:45:15.257Z,92496.16
2022-11-06T04:46:47.914Z,92504.38
2022-11-06T04:48:19.452Z,92498.19
2022-11-06T04:49:51.157Z,92510.56
2022-11-06T04:51:23.867Z,92502.94
2022-11-06T04:52:55.473Z,92503.72
2022-11-06T04:54:27.149Z,92512.41
2022-11-06T04:56:02.636Z,92507.78
2022-11-06T04:57:34.253Z,92503.19
2022-11-06T04:59:06.144Z,92513.97
2022-11-06T05:00:38.619Z,92512.63
2022-11-06T05:02:10.342Z,92499.63
2022-11-06T05:03:41.919Z,92503.13
2022-11-06T05:05:13.469Z,92502.00
2022-11-06T05:06:45.222Z,92506.63
2022-11-06T05:08:18.928Z,92518.41
2022-11-06T05:09:50.624Z,92514.06
2022-11-06T05:11:22.252Z,92512.22
2022-11-06T05:12:53.784Z,92506.47
2022-11-06T05:14:25.299Z,92516.47
2022-11-06T05:15:57.637Z,92514.91
2022-11-06T05:17:33.920Z,92510.50
2022-11-06T05:19:07.993Z,92517.97
2022-11-06T05:20:39.608Z,92520.53
2022-11-06T05:22:29.470Z,92509.47
2022-11-06T05:24:01.092Z,92511.38
2022-11-06T05:25:32.990Z,92514.84
2022-11-06T05:27:04.759Z,92514.06
2022-11-06T05:28:36.437Z,92519.47
2022-11-06T05:30:11.154Z,92523.41
2022-11-06T05:31:43.174Z,92524.66
2022-11-06T05:33:14.752Z,92525.13
2022-11-06T05:34:46.973Z,92529.88
2022-11-06T05:36:18.855Z,92529.41
2022-11-06T05:37:50.524Z,92529.41
2022-11-06T05:39:22.267Z,92525.59
2022-11-06T05:40:53.908Z,92529.41
2022-11-06T05:42:25.636Z,92523.56
2022-11-06T05:43:57.714Z,92532.75
2022-11-06T05:45:29.317Z,92531.97
2022-11-06T05:47:00.972Z,92539.09
2022-11-06T05:48:32.649Z,92547.59
2022-11-06T05:50:04.384Z,92549.19
2022-11-06T05:51:36.046Z,92540.00
2022-11-06T05:53:10.415Z,92550.50
2022-11-06T05:54:42.105Z,92559.56
2022-11-06T05:56:13.724Z,92553.38
2022-11-06T05:57:45.378Z,92555.25
2022-11-06T05:59:16.935Z,92558.53
2022-11-06T06:00:49.066Z,92559.81
2022-11-06T06:02:21.075Z,92560.25
2022-11-06T06:03:53.142Z,92571.03
2022-11-06T06:05:24.833Z,92565.66
2022-11-06T06:06:56.609Z,92572.75
2022-11-06T06:08:28.416Z,92567.34
2022-11-06T06:10:00.042Z,92568.75
2022-11-06T06:11:31.562Z,92568.88
2022-11-06T06:13:05.707Z,92576.47
2022-11-06T06:14:37.450Z,92584.34
2022-11-06T06:16:09.248Z,92578.78
2022-11-06T06:17:41.021Z,92586.06
2022-11-06T06:19:13.099Z,92586.53
2022-11-06T06:20:44.807Z,92590.81
2022-11-06T06:22:16.473Z,92597.13
2022-11-06T06:23:48.412Z,92594.91
2022-11-06T06:25:22.975Z,92594.91
2022-11-06T06:26:54.805Z,92598.72
2022-11-06T06:28:26.531Z,92605.91
2022-11-06T06:29:58.318Z,92601.94
2022-11-06T06:31:30.114Z,92599.09
2022-11-06T06:33:05.545Z,92604.69
2022-11-06T06:34:37.309Z,92601.38
2022-11-06T06:36:09.187Z,92606.91
2022-11-06T06:37:40.769Z,92602.13
2022-11-06T06:39:12.408Z,92608.69
2022-11-06T06:40:43.900Z,92610.56
2022-11-06T06:42:15.656Z,92612.94
2022-11-06T06:43:50.542Z,92614.84
2022-11-06T06:45:22.198Z,92609.78
2022-11-06T06:46:53.911Z,92616.75
2022-11-06T06:48:25.795Z,92616.09
2022-11-06T06:49:58.153Z,92621.03
2022-11-06T06:51:29.752Z,92620.69
2022-11-06T06:53:01.525Z,92615.66
2022-11-06T06:54:33.200Z,92618.00
2022-11-06T06:56:04.909Z,92624.66
2022-11-06T06:57:36.549Z,92631.63
2022-11-06T06:59:08.151Z,92630.19
2022-11-06T07:00:39.916Z,92634.25
2022-11-06T07:02:11.696Z,92630.75
2022-11-06T07:03:43.886Z,92637.50
2022-11-06T07:05:15.589Z,92630.19
2022-11-06T07:06:47.258Z,92636.84
2022-11-06T07:08:19.084Z,92630.97
2022-11-06T07:09:53.463Z,92640.19
2022-11-06T07:11:25.221Z,92639.06
2022-11-06T07:12:56.849Z,92641.44
2022-11-06T07:14:29.582Z,92638.34
2022-11-06T07:16:07.840Z,92636.75
2022-11-06T07:17:39.443Z,92637.41
2022-11-06T07:19:10.970Z,92641.38
2022-11-06T07:20:42.588Z,92639.94
2022-11-06T07:22:14.712Z,92638.66
2022-11-06T07:23:46.637Z,92643.91
2022-11-06T07:25:18.657Z,92649.13
2022-11-06T07:26:50.521Z,92657.03
2022-11-06T07:28:22.331Z,92654.00
2022-11-06T07:29:54.077Z,92653.69
2022-11-06T07:31:25.909Z,92660.97
2022-11-06T07:32:59.921Z,92654.94
2022-11-06T07:34:31.632Z,92662.03
2022-11-06T07:36:12.547Z,92665.84
2022-11-06T07:37:44.724Z,92670.28
2022-11-06T07:39:16.502Z,92668.94
2022-11-06T07:40:48.701Z,92671.31
2022-11-06T07:42:20.616Z,92673.38
2022-11-06T07:43:54.535Z,92675.88
2022-11-06T07:45:26.451Z,92678.06
2022-11-06T07:47:00.537Z,92678.31
2022-11-06T07:48:32.923Z,92681.00
2022-11-06T07:50:04.670Z,92681.72
2022-11-06T07:51:37.440Z,92678.31
2022-11-06T07:53:09.443Z,92684.53
2022-11-06T07:54:41.425Z,92686.25
2022-11-06T07:56:13.263Z,92682.19
2022-11-06T07:57:44.854Z,92682.47
2022-11-06T07:59:16.718Z,92685.31
2022-11-06T08:00:51.959Z,92691.84
2022-11-06T08:02:23.821Z,92694.53
2022-11-06T08:03:56.436Z,92696.13
2022-11-06T08:05:28.221Z,92703.44
2022-11-06T08:06:59.912Z,92706.94
2022-11-06T08:08:32.098Z,92708.56
2022-11-06T08:10:04.017Z,92710.00
2022-11-06T08:11:36.019Z,92708.16
2022-11-06T08:13:07.691Z,92710.28
2022-11-06T08:14:41.550Z,92716.59
2022-11-06T08:16:14.219Z,92715.94
2022-11-06T08:17:46.145Z,92722.59
2022-11-06T08:19:18.374Z,92717.31
2022-11-06T08:20:52.386Z,92717.47
2022-11-06T08:22:24.023Z,92718.25
2022-11-06T08:23:55.653Z,92726.34
2022-11-06T08:25:27.476Z,92725.88
2022-11-06T08:27:00.037Z,92728.88
2022-11-06T08:28:31.762Z,92734.50
2022-11-06T08:30:04.481Z,92737.44
2022-11-06T08:31:36.437Z,92732.69
2022-11-06T08:33:08.445Z,92738.56
2022-11-06T08:34:40.353Z,92731.34
2022-11-06T08:36:12.431Z,92737.44
2022-11-06T08:37:44.349Z,92738.56
2022-11-06T08:39:16.274Z,92738.56
2022-11-06T08:40:53.196Z,92744.75
2022-11-06T08:42:25.903Z,92738.75
2022-11-06T08:43:57.759Z,92752.56
2022-11-06T08:45:29.943Z,92739.72
2022-11-06T08:47:02.383Z,92746.38
2022-11-06T08:48:35.322Z,92745.53
2022-11-06T08:50:07.932Z,92745.47
2022-11-06T08:51:39.960Z,92749.53
2022-11-06T08:53:11.957Z,92749.66
2022-11-06T08:54:43.943Z,92752.38
2022-11-06T08:56:15.811Z,92746.16
2022-11-06T08:57:47.532Z,92760.47
2022-11-06T08:59:19.069Z,92758.25
2022-11-06T09:00:50.908Z,92761.50
2022-11-06T09:02:23.179Z,92761.84
2022-11-06T09:03:54.745Z,92766.13
2022-11-06T09:05:26.827Z,92757.56
2022-11-06T09:06:58.918Z,92762.53
2022-11-06T09:08:30.628Z,92760.63
2022-11-06T09:10:02.492Z,92765.81
2022-11-06T09:11:34.190Z,92769.09
2022-11-06T09:13:05.911Z,92768.75
2022-11-06T09:14:37.528Z,92766.03
2022-11-06T09:16:15.388Z,92765.59
2022-11-06T09:17:48.219Z,92762.56
2022-11-06T09:19:20.118Z,92774.84
2022-11-06T09:20:56.130Z,92774.50
2022-11-06T09:22:27.838Z,92768.22
2022-11-06T09:24:04.929Z,92773.09
2022-11-06T09:25:36.679Z,92771.88
2022-11-06T09:27:08.358Z,92766.59
2022-11-06T09:28:40.081Z,92774.84
2022-11-06T09:30:12.929Z,92776.88
2022-11-06T09:31:45.345Z,92778.91
2022-11-06T09:33:17.233Z,92771.47
2022-11-06T09:34:49.154Z,92781.25
2022-11-06T09:36:21.077Z,92777.97
2022-11-06T09:37:52.830Z,92777.75
2022-11-06T09:39:24.666Z,92776.44
2022-11-06T09:40:58.213Z,92769.91
2022-11-06T09:42:46.780Z,92773.25
2022-11-06T09:44:18.689Z,92780.72
2022-11-06T09:45:54.732Z,92780.94
2022-11-06T09:47:27.894Z,92776.25
2022-11-06T09:49:05.715Z,92786.88
2022-11-06T09:50:39.464Z,92779.88
2022-11-06T09:52:12.571Z,92775.94
2022-11-06T09:54:02.455Z,92769.16
2022-11-06T09:55:34.756Z,92776.53
2022-11-06T09:57:36.014Z,92766.97
2022-11-06T09:59:10.665Z,92769.28
2022-11-06T10:00:42.440Z,92763.44
2022-11-06T10:02:26.405Z,92774.50
2022-11-06T10:03:59.672Z,92769.56
2022-11-06T10:05:35.285Z,92769.97
2022-11-06T10:07:33.086Z,92760.41
2022-11-06T10:09:06.520Z,92767.63
2022-11-06T10:10:38.488Z,92769.34
2022-11-06T10:12:33.569Z,92760.75
2022-11-06T10:14:05.529Z,92763.69
2022-11-06T10:15:39.490Z,92764.16
2022-11-06T10:17:14.553Z,92761.09
2022-11-06T10:18:52.697Z,92764.50
2022-11-06T10:20:43.155Z,92769.31
2022-11-06T10:22:16.684Z,92772.63
2022-11-06T10:24:01.541Z,92772.16
2022-11-06T10:25:45.504Z,92771.38
2022-11-06T10:27:17.928Z,92767.28
2022-11-06T10:29:09.726Z,92774.03
2022-11-06T10:30:45.392Z,92774.25
2022-11-06T10:32:16.923Z,92762.41
2022-11-06T10:34:00.937Z,92767.34
2022-11-06T10:35:35.907Z,92766.22
2022-11-06T10:37:17.759Z,92761.63
2022-11-06T10:38:50.223Z,92766.69
2022-11-06T10:40:23.553Z,92767.16
2022-11-06T10:42:16.611Z,92772.00
2022-11-06T10:43:48.458Z,92762.88
2022-11-06T10:45:20.120Z,92760.41
2022-11-06T10:46:56.137Z,92754.88
2022-11-06T10:48:34.431Z,92758.06
2022-11-06T10:50:14.268Z,92756.47
2022-11-06T10:52:08.278Z,92763.00
2022-11-06T10:53:55.664Z,92763.38
2022-11-06T10:55:37.107Z,92763.69
2022-11-06T10:57:17.974Z,92765.50
2022-11-06T10:58:49.577Z,92756.03
2022-11-06T11:00:41.226Z,92759.88
2022-11-06T11:02:20.806Z,92761.78
2022-11-06T11:03:52.484Z,92764.38
2022-11-06T11:05:24.850Z,92761.31
2022-11-06T11:06:56.649Z,92766.50
2022-11-06T11:08:31.217Z,92769.34
2022-11-06T11:10:41.342Z,92760.56
2022-11-06T11:12:20.302Z,92768.09
2022-11-06T11:13:57.693Z,92764.94
2022-11-06T11:15:31.542Z,92766.50
2022-11-06T11:17:03.356Z,92759.66
2022-11-06T11:18:35.394Z,92760.09
2022-11-06T11:20:36.222Z,92762.13
2022-11-06T11:22:17.634Z,92762.00
2022-11-06T11:24:01.408Z,92755.16
2022-11-06T11:25:32.916Z,92757.41
2022-11-06T11:27:07.509Z,92757.84
2022-11-06T11:28:39.511Z,92757.94
2022-11-06T11:30:19.805Z,92759.19
2022-11-06T11:31:52.229Z,92764.16
2022-11-06T11:33:24.571Z,92761.91
2022-11-06T11:34:57.047Z,92759.66
2022-11-06T11:36:47.108Z,92762.47
2022-11-06T11:38:19.282Z,92760.91
2022-11-06T11:39:50.971Z,92766.19
2022-11-06T11:41:23.108Z,92763.81
2022-11-06T11:42:54.906Z,92757.59
2022-11-06T11:44:26.510Z,92759.19
2022-11-06T11:46:10.391Z,92748.38
2022-11-06T11:47:46.932Z,92746.09
2022-11-06T11:49:36.427Z,92748.16
2022-11-06T11:51:26.423Z,92744.66
2022-11-06T11:53:10.921Z,92737.97
2022-11-06T11:54:42.575Z,92744.38
2022-11-06T11:56:14.991Z,92744.72
2022-11-06T11:57:48.771Z,92747.34
2022-11-06T11:59:29.912Z,92749.13
2022-11-06T12:01:04.855Z,92743.16
2022-11-06T12:02:37.301Z,92741.81
2022-11-06T12:04:10.113Z,92749.81
2022-11-06T12:05:56.998Z,92753.31
2022-11-06T12:07:28.950Z,92749.72
2022-11-06T12:09:00.499Z,92751.97
2022-11-06T12:10:41.495Z,92751.19
2022-11-06T12:12:23.201Z,92746.09
2022-11-06T12:14:30.227Z,92748.94
2022-11-06T12:16:02.458Z,92749.94
2022-11-06T12:17:34.517Z,92750.16
2022-11-06T12:19:07.347Z,92743.72
2022-11-06T12:20:43.692Z,92748.13
2022-11-06T12:22:28.884Z,92754.22
2022-11-06T12:24:00.517Z,92752.84
2022-11-06T12:25:36.463Z,92752.97
2022-11-06T12:27:11.189Z,92755.34
2022-11-06T12:28:42.891Z,92755.56
2022-11-06T12:30:15.462Z,92747.56
2022-11-06T12:31:47.389Z,92751.50
2022-11-06T12:33:27.342Z,92758.16
2022-11-06T12:35:30.726Z,92753.97
2022-11-06T12:37:14.888Z,92752.84
2022-11-06T12:38:51.159Z,92762.88
2022-11-06T12:40:25.923Z,92761.75
2022-11-06T12:41:57.739Z,92772.06
2022-11-06T12:43:33.136Z,92770.47
2022-11-06T12:45:06.554Z,92765.50
2022-11-06T12:46:43.679Z,92766.84
2022-11-06T12:48:22.092Z,92758.03
2022-11-06T12:50:02.589Z,92770.53
2022-11-06T12:51:49.945Z,92772.91
2022-11-06T12:53:25.278Z,92772.91
2022-11-06T12:55:05.111Z,92772.91
2022-11-06T12:56:55.421Z,92780.38
2022-11-06T12:58:27.111Z,92782.28
2022-11-06T13:00:31.470Z,92779.56
2022-11-06T13:02:12.337Z,92773.81
2022-11-06T13:03:46.777Z,92783.88
2022-11-06T13:05:18.588Z,92779.47
2022-11-06T13:07:05.496Z,92771.91
2022-11-06T13:08:52.359Z,92773.88
2022-11-06T13:10:44.422Z,92775.44
2022-11-06T13:12:18.384Z,92779.50
2022-11-06T13:13:49.992Z,92778.16
2022-11-06T13:15:27.444Z,92774.31
2022-11-06T13:17:06.553Z,92785.16
2022-11-06T13:18:40.757Z,92781.88
2022-11-06T13:20:18.227Z,92784.47
2022-11-06T13:21:52.742Z,92771.47
2022-11-06T13:23:38.369Z,92774.78
2022-11-06T13:25:15.557Z,92770.47
2022-11-06T13:26:54.576Z,92775.75
2022-11-06T13:28:46.505Z,92776.47
2022-11-06T13:30:18.944Z,92773.63
2022-11-06T13:31:55.277Z,92769.00
2022-11-06T13:33:30.934Z,92769.34
2022-11-06T13:35:02.489Z,92764.25
2022-11-06T13:36:35.835Z,92776.34
2022-11-06T13:38:08.274Z,92764.84
2022-11-06T13:39:50.337Z,92763.25
2022-11-06T13:41:22.672Z,92767.63
2022-11-06T13:43:03.767Z,92769.00
2022-11-06T13:44:35.684Z,92771.16
2022-11-06T13:46:13.200Z,92776.81
2022-11-06T13:47:44.784Z,92774.75
2022-11-06T13:49:16.550Z,92784.13
2022-11-06T13:50:51.139Z,92779.84
2022-11-06T13:52:31.503Z,92790.22
2022-11-06T13:54:12.307Z,92787.06
2022-11-06T13:55:44.190Z,92785.03
2022-11-06T13:57:22.077Z,92782.53
2022-11-06T13:59:02.799Z,92777.00
2022-11-06T14:00:37.602Z,92796.19
2022-11-06T14:02:12.057Z,92791.88
2022-11-06T14:03:43.920Z,92781.41
2022-11-06T14:05:21.746Z,92779.81
2022-11-06T14:06:54.072Z,92779.03
2022-11-06T14:08:34.944Z,92788.25
2022-11-06T14:10:12.051Z,92786.34
2022-11-06T14:11:43.811Z,92792.56
2022-11-06T14:13:15.366Z,92797.03
2022-11-06T14:14:47.216Z,92793.69
2022-11-06T14:16:21.909Z,92796.38
2022-11-06T14:17:54.337Z,92792.78
2022-11-06T14:19:30.585Z,92801.09
2022-11-06T14:21:21.012Z,92799.31
2022-11-06T14:22:52.974Z,92799.09
2022-11-06T14:24:34.518Z,92800.47
2022-11-06T14:26:09.434Z,92792.56
2022-11-06T14:27:41.148Z,92796.63
2022-11-06T14:29:30.739Z,92799.78
2022-11-06T14:31:15.632Z,92803.41
2022-11-06T14:32:49.181Z,92804.09
2022-11-06T14:34:26.998Z,92806.69
2022-11-06T14:35:58.995Z,92804.91
2022-11-06T14:37:52.483Z,92810.44
2022-11-06T14:39:42.868Z,92811.22
2022-11-06T14:41:33.190Z,92813.16
2022-11-06T14:43:41.516Z,92813.47
2022-11-06T14:45:22.024Z,92813.81
2022-11-06T14:46:55.700Z,92821.59
2022-11-06T14:48:40.705Z,92818.91
2022-11-06T14:50:18.555Z,92818.22
2022-11-06T14:52:03.032Z,92817.44
2022-11-06T14:53:35.610Z,92831.53
2022-11-06T14:55:08.098Z,92823.50
2022-11-06T14:56:39.944Z,92829.50
2022-11-06T14:58:15.209Z,92822.50
2022-11-06T14:59:49.458Z,92822.94
2022-11-06T15:01:25.237Z,92823.50
2022-11-06T15:02:57.274Z,92820.66
2022-11-06T15:04:29.325Z,92825.19
2022-11-06T15:06:02.545Z,92825.84
2022-11-06T15:08:03.715Z,92814.78
2022-11-06T15:09:37.971Z,92823.13
2022-11-06T15:11:09.652Z,92827.28
2022-11-06T15:13:03.672Z,92826.47
2022-11-06T15:14:35.343Z,92829.31
2022-11-06T15:16:10.038Z,92832.34
2022-11-06T15:17:41.999Z,92831.22
2022-11-06T15:19:16.064Z,92832.34
2022-11-06T15:20:54.963Z,92831.44
2022-11-06T15:22:34.267Z,92828.63
2022-11-06T15:24:09.323Z,92827.03
2022-11-06T15:25:46.431Z,92831.34
2022-11-06T15:27:25.894Z,92845.31
2022-11-06T15:29:03.322Z,92836.63
2022-11-06T15:30:48.734Z,92847.31
2022-11-06T15:32:21.584Z,92843.69
2022-11-06T15:34:03.370Z,92850.56
2022-11-06T15:35:35.146Z,92848.06
2022-11-06T15:37:13.623Z,92849.53
2022-11-06T15:38:46.037Z,92856.22
2022-11-06T15:40:30.633Z,92857.56
2022-11-06T15:42:02.756Z,92854.59
2022-11-06T15:43:35.755Z,92855.44
2022-11-06T15:45:08.514Z,92861.06
2022-11-06T15:46:40.288Z,92861.25
2022-11-06T15:48:20.479Z,92864.50
2022-11-06T15:50:06.965Z,92866.59
2022-11-06T15:51:40.017Z,92866.94
2022-11-06T15:53:15.171Z,92872.31
2022-11-06T15:54:48.647Z,92871.22
2022-11-06T15:56:25.053Z,92877.09
2022-11-06T15:58:05.453Z,92875.16
2022-11-06T15:59:37.529Z,92885.19
2022-11-06T16:01:10.625Z,92881.56
2022-11-06T16:02:51.648Z,92885.91
2022-11-06T16:04:24.538Z,92892.16
2022-11-06T16:05:58.073Z,92891.06
2022-11-06T16:07:30.750Z,92892.19
2022-11-06T16:09:02.433Z,92887.16
2022-11-06T16:10:35.150Z,92891.59
2022-11-06T16:12:06.907Z,92892.72
2022-11-06T16:13:38.697Z,92897.16
2022-11-06T16:15:28.777Z,92896.84
2022-11-06T16:17:00.361Z,92896.94
2022-11-06T16:18:44.575Z,92896.63
2022-11-06T16:20:16.287Z,92895.69
2022-11-06T16:21:49.270Z,92898.06
2022-11-06T16:23:29.344Z,92901.09
2022-11-06T16:25:05.718Z,92908.75
2022-11-06T16:26:40.982Z,92906.22
2022-11-06T16:28:19.195Z,92912.41
2022-11-06T16:29:54.976Z,92909.41
2022-11-06T16:31:29.892Z,92906.22
2022-11-06T16:33:04.534Z,92913.22
2022-11-06T16:34:42.184Z,92907.50
2022-11-06T16:36:14.432Z,92903.53
2022-11-06T16:37:46.126Z,92919.59
2022-11-06T16:39:17.720Z,92914.38
2022-11-06T16:40:50.575Z,92912.16
2022-11-06T16:42:22.529Z,92925.06
2022-11-06T16:44:15.745Z,92922.53
2022-11-06T16:46:08.077Z,92931.75
2022-11-06T16:47:39.853Z,92917.34
2022-11-06T16:49:30.066Z,92928.16
2022-11-06T16:51:02.810Z,92925.75
2022-11-06T16:52:34.456Z,92927.34
2022-11-06T16:54:15.171Z,92929.53
2022-11-06T16:55:56.534Z,92923.34
2022-11-06T16:57:37.725Z,92919.69
2022-11-06T16:59:09.626Z,92934.66
2022-11-06T17:00:41.139Z,92936.41
2022-11-06T17:02:20.381Z,92927.19
2022-11-06T17:04:01.378Z,92934.66
2022-11-06T17:05:41.957Z,92931.97
2022-11-06T17:07:20.432Z,92931.97
2022-11-06T17:08:58.862Z,92938.47
2022-11-06T17:10:36.781Z,92933.06
2022-11-06T17:12:09.947Z,92940.84
2022-11-06T17:13:41.858Z,92939.38
2022-11-06T17:15:13.489Z,92938.28
2022-11-06T17:16:54.997Z,92941.47
2022-11-06T17:18:27.987Z,92936.06
2022-11-06T17:20:00.921Z,92942.88
2022-11-06T17:21:32.590Z,92942.28
2022-11-06T17:23:04.673Z,92944.97
2022-11-06T17:24:37.554Z,92945.47
2022-11-06T17:26:14.972Z,92944.66
2022-11-06T17:27:46.659Z,92943.88
2022-11-06T17:29:21.970Z,92946.88
2022-11-06T17:30:55.138Z,92948.78
2022-11-06T17:32:26.756Z,92947.53
2022-11-06T17:33:58.811Z,92945.47
2022-11-06T17:35:30.569Z,92945.97
2022-11-06T17:37:02.140Z,92946.28
2022-11-06T17:38:34.049Z,92954.06
2022-11-06T17:40:05.761Z,92948.38
2022-11-06T17:41:37.553Z,92952.66
2022-11-06T17:43:09.190Z,92946.66
2022-11-06T17:44:40.936Z,92946.97
2022-11-06T17:46:13.524Z,92948.25
2022-11-06T17:47:45.107Z,92950.28
2022-11-06T17:49:18.429Z,92947.44
2022-11-06T17:51:09.322Z,92961.25
2022-11-06T17:52:40.911Z,92954.59
2022-11-06T17:54:12.819Z,92951.88
2022-11-06T17:55:44.401Z,92948.06
2022-11-06T17:57:22.840Z,92958.56
2022-11-06T17:58:55.664Z,92943.63
2022-11-06T18:00:27.467Z,92949.16
2022-11-06T18:01:59.231Z,92951.72
2022-11-06T18:03:36.357Z,92953.16
2022-11-06T18:05:08.861Z,92955.84
2022-11-06T18:06:40.446Z,92958.38
2022-11-06T18:08:12.576Z,92957.44
2022-11-06T18:09:44.505Z,92960.44
2022-11-06T18:11:16.302Z,92953.44
2022-11-06T18:12:51.418Z,92957.25
2022-11-06T18:14:23.231Z,92959.50
2022-11-06T18:15:54.988Z,92972.06
2022-11-06T18:17:26.505Z,92962.19
2022-11-06T18:18:58.182Z,92971.28
2022-11-06T18:20:30.190Z,92961.59
2022-11-06T18:22:06.526Z,92966.19
2022-11-06T18:23:38.298Z,92962.88
2022-11-06T18:25:10.125Z,92980.94
2022-11-06T18:26:41.888Z,92969.69
2022-11-06T18:28:13.551Z,92972.38
2022-11-06T18:29:45.577Z,92978.88
2022-11-06T18:31:17.596Z,92979.69
2022-11-06T18:32:49.539Z,92978.41
2022-11-06T18:34:21.443Z,92979.34
2022-11-06T18:35:53.054Z,92973.94
2022-11-06T18:37:26.115Z,92969.03
2022-11-06T18:38:57.721Z,92973.81